Stolt Ami — 3EAZ5 — position and weather

sailwx.info

Track history (hours):
 
Tides and Currents Weather Stations Pressure Air Temp Water Temp Dewpoint Dewpoint Depression Visibility Wind Speed Wind Dir Waves Ship Positions

Stolt Ami

Last reported at 2015-Jan-25 23:33 UTC. Time now 2015-Jan-30 23:27 UTC.
Position S 24°01' W 046°21'.

Length 143 m; draft 9.2 m.

Type: Ship (hazmat cat C). MMSI: 371392514.

Date/timePositionNaut miles runAvg speedWind from/ knotsBaromVisibWave heightAir tempDewpointWater temp
2015-Jan-25 23:33S 24°01' W 046°21'6 5.2
2015-Jan-25 22:27S 23°55' W 046°20'0 0.0
2015-Jan-25 13:30S 23°55' W 046°20'0 0.0
2015-Jan-25 11:21S 23°55' W 046°20'0 0.0
2015-Jan-25 07:15S 23°55' W 046°20'0 0.0
2015-Jan-25 06:33S 23°55' W 046°20'0 0.0
2015-Jan-25 05:18S 23°55' W 046°20'0 0.0
2015-Jan-25 04:30S 23°55' W 046°20'0 0.0
2015-Jan-25 03:24S 23°55' W 046°20'0 0.0
2015-Jan-25 02:06S 23°55' W 046°20'0 0.0
2015-Jan-25 01:18S 23°55' W 046°20'0 0.0
2015-Jan-24 19:33S 23°55' W 046°20'0 0.0
2015-Jan-24 18:30S 23°55' W 046°20'0 0.0
2015-Jan-24 16:15S 23°55' W 046°20'0 0.0
2015-Jan-24 15:27S 23°55' W 046°20'0 0.0
2015-Jan-24 13:15S 23°55' W 046°20'0 0.0
2015-Jan-24 12:09S 23°55' W 046°20'0 0.0
2015-Jan-24 11:15S 23°55' W 046°20'0 0.0
2015-Jan-24 01:30S 23°55' W 046°20'0 0.0
2015-Jan-24 00:12S 23°55' W 046°20'0 0.0
2015-Jan-23 22:24S 23°55' W 046°20'0 0.0
2015-Jan-23 16:12S 23°55' W 046°20'0 0.0
2015-Jan-23 15:33S 23°55' W 046°20'0 0.0
2015-Jan-23 14:21S 23°55' W 046°20'0 0.0
2015-Jan-23 13:27S 23°55' W 046°20'0 0.0
2015-Jan-23 12:15S 23°55' W 046°20'0 0.0
2015-Jan-23 11:33S 23°55' W 046°20'1 1.2
2015-Jan-23 10:33S 23°56' W 046°19'7 7.1
2015-Jan-23 09:33S 24°03' W 046°21'3 3.3
2015-Jan-23 08:32S 24°06' W 046°21'0 0.1
2015-Jan-23 07:26S 24°06' W 046°21'0 0.1
2015-Jan-23 06:03S 24°06' W 046°21'2 4.8
2015-Jan-23 05:33S 24°07' W 046°23'8 5.9
2015-Jan-23 04:12S 24°15' W 046°21'  
2015-Jan-18 19:18S 25°15' W 045°56'76 3.4
2015-Jan-17 21:17S 24°03' W 046°22'6 7.8
2015-Jan-17 20:33S 23°59' W 046°17'0 0.0
2015-Jan-17 19:33S 23°59' W 046°17'0 0.0
2015-Jan-17 18:27S 23°59' W 046°17'0 0.0
2015-Jan-17 17:33S 23°59' W 046°17'0 0.0
2015-Jan-17 16:30S 23°59' W 046°17'0 0.0
2015-Jan-17 15:33S 23°59' W 046°17'0 0.0
2015-Jan-17 14:30S 23°59' W 046°17'0 0.0
2015-Jan-17 13:30S 23°59' W 046°17'0 0.0
2015-Jan-17 12:33S 23°59' W 046°17'0 0.0
2015-Jan-17 11:27S 23°59' W 046°17'0 0.0
2015-Jan-17 10:33S 23°59' W 046°17'0 0.0
2015-Jan-17 09:30S 23°59' W 046°17'0 0.0
2015-Jan-17 08:30S 23°59' W 046°17'0 0.0
2015-Jan-17 07:30S 23°59' W 046°17'0 0.0
2015-Jan-17 06:30S 23°59' W 046°17'0 0.0
2015-Jan-17 05:30S 23°59' W 046°17'0 0.0
2015-Jan-17 04:30S 23°59' W 046°17'0 0.0
2015-Jan-17 03:33S 23°59' W 046°17'0 0.0
2015-Jan-17 02:30S 23°59' W 046°17'0 0.0
2015-Jan-17 01:30S 23°59' W 046°17'0 0.0
2015-Jan-17 00:30S 23°59' W 046°17'0 0.0
2015-Jan-16 23:30S 23°59' W 046°17'0 0.0
2015-Jan-16 22:33S 23°59' W 046°17'0 0.0
2015-Jan-16 21:30S 23°59' W 046°17'0 0.0
2015-Jan-16 20:30S 23°59' W 046°17'0 0.0
2015-Jan-16 19:33S 23°59' W 046°17'0 0.0
2015-Jan-16 18:30S 23°59' W 046°17'0 0.0
2015-Jan-16 17:30S 23°59' W 046°17'0 0.0
2015-Jan-16 16:30S 23°59' W 046°17'0 0.0
2015-Jan-16 15:30S 23°59' W 046°17'0 0.0
2015-Jan-16 14:30S 23°59' W 046°17'0 0.0
2015-Jan-16 13:30S 23°59' W 046°17'0 0.0
2015-Jan-16 12:30S 23°59' W 046°17'0 0.0
2015-Jan-16 11:30S 23°59' W 046°17'0 0.0
2015-Jan-16 10:33S 23°59' W 046°17'0 0.0
2015-Jan-16 09:30S 23°59' W 046°17'0 0.0
2015-Jan-16 08:30S 23°59' W 046°17'0 0.0
2015-Jan-16 07:30S 23°59' W 046°17'0 0.0
2015-Jan-16 06:30S 23°59' W 046°17'0 0.0
2015-Jan-16 05:33S 23°59' W 046°17'0 0.0
2015-Jan-16 04:33S 23°59' W 046°17'0 0.0
2015-Jan-16 03:33S 23°59' W 046°17'0 0.0
2015-Jan-16 02:30S 23°59' W 046°17'0 0.0
2015-Jan-16 01:30S 23°59' W 046°17'0 0.0
2015-Jan-16 00:30S 23°59' W 046°17'  
Track history (hours):
 
Tides and Currents Weather Stations Pressure Air Temp Water Temp Dewpoint Dewpoint Depression Visibility Wind Speed Wind Dir Waves Ship Positions

Stolt Ami

Last reported at 2015-Jan-25 23:33 UTC. Time now 2015-Jan-30 23:27 UTC.
Position S 24°01' W 046°21'.

Length 143 m; draft 9.2 m.

Type: Ship (hazmat cat C). MMSI: 371392514.

Date/timePositionNaut miles runAvg speedWind from/ knotsBaromVisibWave heightAir tempDewpointWater temp
2015-Jan-25 23:33S 24°01' W 046°21'6 5.2
2015-Jan-25 22:27S 23°55' W 046°20'0 0.0
2015-Jan-25 13:30S 23°55' W 046°20'0 0.0
2015-Jan-25 11:21S 23°55' W 046°20'0 0.0
2015-Jan-25 07:15S 23°55' W 046°20'0 0.0
2015-Jan-25 06:33S 23°55' W 046°20'0 0.0
2015-Jan-25 05:18S 23°55' W 046°20'0 0.0
2015-Jan-25 04:30S 23°55' W 046°20'0 0.0
2015-Jan-25 03:24S 23°55' W 046°20'0 0.0
2015-Jan-25 02:06S 23°55' W 046°20'0 0.0
2015-Jan-25 01:18S 23°55' W 046°20'0 0.0
2015-Jan-24 19:33S 23°55' W 046°20'0 0.0
2015-Jan-24 18:30S 23°55' W 046°20'0 0.0
2015-Jan-24 16:15S 23°55' W 046°20'0 0.0
2015-Jan-24 15:27S 23°55' W 046°20'0 0.0
2015-Jan-24 13:15S 23°55' W 046°20'0 0.0
2015-Jan-24 12:09S 23°55' W 046°20'0 0.0
2015-Jan-24 11:15S 23°55' W 046°20'0 0.0
2015-Jan-24 01:30S 23°55' W 046°20'0 0.0
2015-Jan-24 00:12S 23°55' W 046°20'0 0.0
2015-Jan-23 22:24S 23°55' W 046°20'0 0.0
2015-Jan-23 16:12S 23°55' W 046°20'0 0.0
2015-Jan-23 15:33S 23°55' W 046°20'0 0.0
2015-Jan-23 14:21S 23°55' W 046°20'0 0.0
2015-Jan-23 13:27S 23°55' W 046°20'0 0.0
2015-Jan-23 12:15S 23°55' W 046°20'0 0.0
2015-Jan-23 11:33S 23°55' W 046°20'1 1.2
2015-Jan-23 10:33S 23°56' W 046°19'7 7.1
2015-Jan-23 09:33S 24°03' W 046°21'3 3.3
2015-Jan-23 08:32S 24°06' W 046°21'0 0.1
2015-Jan-23 07:26S 24°06' W 046°21'0 0.1
2015-Jan-23 06:03S 24°06' W 046°21'2 4.8
2015-Jan-23 05:33S 24°07' W 046°23'8 5.9
2015-Jan-23 04:12S 24°15' W 046°21'  
2015-Jan-18 19:18S 25°15' W 045°56'76 3.4
2015-Jan-17 21:17S 24°03' W 046°22'6 7.8
2015-Jan-17 20:33S 23°59' W 046°17'0 0.0
2015-Jan-17 19:33S 23°59' W 046°17'0 0.0
2015-Jan-17 18:27S 23°59' W 046°17'0 0.0
2015-Jan-17 17:33S 23°59' W 046°17'0 0.0
2015-Jan-17 16:30S 23°59' W 046°17'0 0.0
2015-Jan-17 15:33S 23°59' W 046°17'0 0.0
2015-Jan-17 14:30S 23°59' W 046°17'0 0.0
2015-Jan-17 13:30S 23°59' W 046°17'0 0.0
2015-Jan-17 12:33S 23°59' W 046°17'0 0.0
2015-Jan-17 11:27S 23°59' W 046°17'0 0.0
2015-Jan-17 10:33S 23°59' W 046°17'0 0.0
2015-Jan-17 09:30S 23°59' W 046°17'0 0.0
2015-Jan-17 08:30S 23°59' W 046°17'0 0.0
2015-Jan-17 07:30S 23°59' W 046°17'0 0.0
2015-Jan-17 06:30S 23°59' W 046°17'0 0.0
2015-Jan-17 05:30S 23°59' W 046°17'0 0.0
2015-Jan-17 04:30S 23°59' W 046°17'0 0.0
2015-Jan-17 03:33S 23°59' W 046°17'0 0.0
2015-Jan-17 02:30S 23°59' W 046°17'0 0.0
2015-Jan-17 01:30S 23°59' W 046°17'0 0.0
2015-Jan-17 00:30S 23°59' W 046°17'0 0.0
2015-Jan-16 23:30S 23°59' W 046°17'0 0.0
2015-Jan-16 22:33S 23°59' W 046°17'0 0.0
2015-Jan-16 21:30S 23°59' W 046°17'0 0.0
2015-Jan-16 20:30S 23°59' W 046°17'0 0.0
2015-Jan-16 19:33S 23°59' W 046°17'0 0.0
2015-Jan-16 18:30S 23°59' W 046°17'0 0.0
2015-Jan-16 17:30S 23°59' W 046°17'0 0.0
2015-Jan-16 16:30S 23°59' W 046°17'0 0.0
2015-Jan-16 15:30S 23°59' W 046°17'0 0.0
2015-Jan-16 14:30S 23°59' W 046°17'0 0.0
2015-Jan-16 13:30S 23°59' W 046°17'0 0.0
2015-Jan-16 12:30S 23°59' W 046°17'0 0.0
2015-Jan-16 11:30S 23°59' W 046°17'0 0.0
2015-Jan-16 10:33S 23°59' W 046°17'0 0.0
2015-Jan-16 09:30S 23°59' W 046°17'0 0.0
2015-Jan-16 08:30S 23°59' W 046°17'0 0.0
2015-Jan-16 07:30S 23°59' W 046°17'0 0.0
2015-Jan-16 06:30S 23°59' W 046°17'0 0.0
2015-Jan-16 05:33S 23°59' W 046°17'0 0.0
2015-Jan-16 04:33S 23°59' W 046°17'0 0.0
2015-Jan-16 03:33S 23°59' W 046°17'0 0.0
2015-Jan-16 02:30S 23°59' W 046°17'0 0.0
2015-Jan-16 01:30S 23°59' W 046°17'0 0.0
2015-Jan-16 00:30S 23°59' W 046°17'  

Dump ship's entire track history